createdAt,value
2023-01-25T00:00:53.691Z,1.70
2023-01-25T00:03:20.521Z,1.70
2023-01-25T00:05:47.350Z,1.70
2023-01-25T00:08:14.105Z,1.70
2023-01-25T00:10:40.841Z,1.70
2023-01-25T00:13:07.607Z,1.70
2023-01-25T00:15:34.324Z,1.80
2023-01-25T00:18:01.070Z,1.90
2023-01-25T00:20:27.763Z,1.90
2023-01-25T00:22:54.523Z,1.90
2023-01-25T00:25:21.268Z,1.90
2023-01-25T00:27:48.008Z,1.90
2023-01-25T00:30:15.046Z,1.80
2023-01-25T00:32:49.440Z,1.80
2023-01-25T00:35:16.279Z,1.90
2023-01-25T00:37:46.751Z,1.90
2023-01-25T00:40:13.840Z,1.90
2023-01-25T00:42:41.063Z,1.90
2023-01-25T00:45:10.618Z,1.90
2023-01-25T00:47:37.466Z,1.90
2023-01-25T00:50:05.689Z,1.90
2023-01-25T00:52:32.394Z,1.90
2023-01-25T00:54:59.156Z,2.00
2023-01-25T00:57:25.880Z,2.00
2023-01-25T00:59:52.692Z,2.00
2023-01-25T01:02:19.381Z,2.00
2023-01-25T01:04:46.144Z,2.10
2023-01-25T01:07:14.811Z,2.10
2023-01-25T01:09:41.845Z,2.10
2023-01-25T01:12:08.659Z,2.20
2023-01-25T01:14:35.458Z,2.20
2023-01-25T01:17:02.260Z,2.20
2023-01-25T01:19:29.202Z,2.10
2023-01-25T01:21:55.946Z,2.10
2023-01-25T01:24:22.825Z,2.10
2023-01-25T01:26:49.646Z,2.10
2023-01-25T01:29:16.426Z,2.00
2023-01-25T01:31:43.302Z,2.00
2023-01-25T01:34:14.492Z,2.10
2023-01-25T01:36:41.598Z,2.00
2023-01-25T01:39:08.999Z,2.00
2023-01-25T01:41:36.302Z,2.00
2023-01-25T01:44:03.706Z,1.90
2023-01-25T01:46:31.271Z,1.90
2023-01-25T01:49:16.710Z,1.90
2023-01-25T01:51:50.834Z,1.90
2023-01-25T01:54:34.255Z,1.90
2023-01-25T01:57:09.754Z,1.90
2023-01-25T02:00:10.252Z,1.90
2023-01-25T02:02:37.142Z,2.00
2023-01-25T02:05:07.300Z,2.00
2023-01-25T02:07:37.074Z,2.10
2023-01-25T02:10:05.940Z,2.10
2023-01-25T02:12:32.767Z,2.20
2023-01-25T02:14:59.470Z,2.20
2023-01-25T02:17:30.138Z,2.10
2023-01-25T02:20:03.857Z,2.10
2023-01-25T02:22:45.890Z,2.20
2023-01-25T02:25:14.457Z,2.20
2023-01-25T02:27:52.369Z,2.20
2023-01-25T02:30:19.210Z,2.20
2023-01-25T02:32:46.049Z,2.20
2023-01-25T02:35:25.265Z,2.30
2023-01-25T02:37:52.181Z,2.20
2023-01-25T02:40:19.223Z,2.20
2023-01-25T02:42:46.451Z,2.20
2023-01-25T02:45:16.595Z,2.30
2023-01-25T02:47:43.360Z,2.40
2023-01-25T02:50:10.915Z,2.40
2023-01-25T02:52:37.632Z,2.40
2023-01-25T02:55:04.805Z,2.50
2023-01-25T02:59:59.418Z,2.40
2023-01-25T03:02:26.275Z,2.40
2023-01-25T03:04:53.008Z,2.40
2023-01-25T03:07:19.721Z,2.40
2023-01-25T03:09:46.553Z,2.10
2023-01-25T03:12:13.393Z,2.10
2023-01-25T03:14:40.129Z,2.00
2023-01-25T03:17:06.803Z,2.00
2023-01-25T03:19:33.520Z,1.90
2023-01-25T03:22:00.206Z,1.80
2023-01-25T03:24:26.962Z,1.80
2023-01-25T03:27:13.326Z,1.80
2023-01-25T03:29:41.596Z,1.70
2023-01-25T03:32:08.715Z,1.60
2023-01-25T03:34:35.906Z,1.60
2023-01-25T03:37:03.662Z,1.60
2023-01-25T03:39:30.399Z,1.70
2023-01-25T03:41:57.118Z,1.60
2023-01-25T03:44:23.908Z,1.60
2023-01-25T03:46:50.672Z,1.70
2023-01-25T03:49:18.636Z,1.70
2023-01-25T03:51:45.487Z,1.70
2023-01-25T03:54:12.300Z,1.60
2023-01-25T03:56:39.027Z,1.50
2023-01-25T03:59:05.916Z,1.60
2023-01-25T04:01:32.728Z,1.50
2023-01-25T04:03:59.523Z,1.60
2023-01-25T04:06:26.297Z,1.70
2023-01-25T04:08:53.205Z,1.60
2023-01-25T04:11:20.081Z,1.70
2023-01-25T04:13:46.931Z,1.70
2023-01-25T04:16:13.814Z,1.70
2023-01-25T04:18:40.905Z,1.70
2023-01-25T04:21:07.840Z,1.70
2023-01-25T04:23:34.572Z,1.70
2023-01-25T04:26:05.775Z,1.70
2023-01-25T04:28:33.924Z,1.70
2023-01-25T04:31:01.083Z,1.80
2023-01-25T04:33:27.965Z,1.80
2023-01-25T04:35:54.713Z,1.70
2023-01-25T04:38:21.603Z,1.80
2023-01-25T04:40:48.328Z,1.70
2023-01-25T04:43:16.378Z,1.60
2023-01-25T04:45:43.388Z,1.60
2023-01-25T04:48:12.713Z,1.60
2023-01-25T04:50:40.976Z,1.60
2023-01-25T04:53:08.904Z,1.70
2023-01-25T04:55:35.910Z,1.70
2023-01-25T04:58:03.852Z,1.60
2023-01-25T05:00:31.376Z,1.60
2023-01-25T05:02:58.128Z,1.60
2023-01-25T05:05:24.967Z,1.60
2023-01-25T05:07:51.743Z,1.70
2023-01-25T05:10:18.665Z,1.70
2023-01-25T05:12:45.432Z,1.70
2023-01-25T05:15:12.582Z,1.70
2023-01-25T05:17:39.538Z,1.70
2023-01-25T05:20:06.632Z,1.60
2023-01-25T05:22:33.433Z,1.60
2023-01-25T05:25:01.903Z,1.70
2023-01-25T05:27:28.625Z,1.70
2023-01-25T05:29:55.969Z,1.70
2023-01-25T05:32:23.727Z,1.70
2023-01-25T05:34:50.913Z,1.80
2023-01-25T05:37:19.505Z,1.90
2023-01-25T05:39:46.383Z,1.80
2023-01-25T05:42:18.014Z,1.70
2023-01-25T05:44:47.313Z,1.80
2023-01-25T05:47:16.632Z,1.70
2023-01-25T05:49:44.071Z,1.70
2023-01-25T05:52:14.520Z,1.70
2023-01-25T05:54:41.570Z,1.80
2023-01-25T05:57:08.473Z,1.80
2023-01-25T05:59:35.271Z,1.80
2023-01-25T06:02:02.078Z,1.80
2023-01-25T06:04:28.908Z,1.90
2023-01-25T06:06:55.652Z,1.80
2023-01-25T06:09:23.526Z,1.90
2023-01-25T06:11:50.277Z,1.90
2023-01-25T06:14:17.317Z,1.70
2023-01-25T06:16:44.230Z,1.60
2023-01-25T06:19:13.180Z,1.50
2023-01-25T06:21:39.884Z,1.60
2023-01-25T06:24:07.225Z,1.60
2023-01-25T06:26:34.249Z,1.60
2023-01-25T06:29:01.004Z,1.60
2023-01-25T06:31:27.858Z,1.60
2023-01-25T06:33:54.739Z,1.60
2023-01-25T06:36:22.739Z,1.50
2023-01-25T06:38:50.935Z,1.50
2023-01-25T06:41:18.680Z,1.50
2023-01-25T06:43:45.995Z,1.40
2023-01-25T06:46:13.293Z,1.30
2023-01-25T06:48:42.970Z,1.30
2023-01-25T06:51:12.293Z,1.20
2023-01-25T06:53:41.789Z,1.20
2023-01-25T06:56:18.947Z,1.20
2023-01-25T06:58:46.328Z,1.20
2023-01-25T07:01:16.715Z,1.20
2023-01-25T07:03:43.756Z,1.20
2023-01-25T07:06:11.645Z,1.10
2023-01-25T07:08:39.781Z,1.10
2023-01-25T07:11:10.533Z,1.10
2023-01-25T07:13:37.279Z,1.10
2023-01-25T07:16:06.789Z,1.10
2023-01-25T07:18:34.560Z,1.10
2023-01-25T07:21:07.520Z,1.20
2023-01-25T07:23:34.831Z,1.20
2023-01-25T07:26:02.181Z,1.10
2023-01-25T07:28:29.187Z,1.10
2023-01-25T07:30:57.063Z,1.00
2023-01-25T07:33:23.862Z,1.10
2023-01-25T07:35:51.055Z,1.10
2023-01-25T07:38:17.901Z,1.10
2023-01-25T07:40:50.954Z,1.10
2023-01-25T07:43:17.776Z,1.10
2023-01-25T07:45:48.658Z,1.20
2023-01-25T07:48:17.079Z,1.20
2023-01-25T07:50:46.732Z,1.20
2023-01-25T07:53:14.090Z,1.30
2023-01-25T07:55:40.873Z,1.30
2023-01-25T07:58:10.545Z,1.30
2023-01-25T08:00:37.587Z,1.20
2023-01-25T08:03:04.447Z,1.30
2023-01-25T08:05:31.158Z,1.40
2023-01-25T08:07:57.911Z,1.50
2023-01-25T08:10:24.805Z,1.50
2023-01-25T08:12:51.561Z,1.60
2023-01-25T08:15:18.395Z,1.70
2023-01-25T08:17:45.100Z,1.80
2023-01-25T08:20:12.647Z,1.80
2023-01-25T08:22:39.409Z,1.70
2023-01-25T08:25:07.060Z,1.70
2023-01-25T08:27:34.107Z,1.80
2023-01-25T08:30:00.929Z,1.60
2023-01-25T08:32:27.688Z,1.50
2023-01-25T08:34:54.533Z,1.60
2023-01-25T08:37:21.263Z,1.70
2023-01-25T08:39:48.105Z,1.80
2023-01-25T08:42:14.847Z,1.70
2023-01-25T08:44:41.593Z,1.70
2023-01-25T08:47:08.408Z,1.60
2023-01-25T08:49:35.275Z,1.70
2023-01-25T08:52:02.097Z,1.60
2023-01-25T08:54:28.952Z,1.40
2023-01-25T08:56:55.777Z,1.40
2023-01-25T08:59:22.683Z,1.50
2023-01-25T09:01:49.671Z,1.50
2023-01-25T09:04:19.442Z,1.60
2023-01-25T09:06:46.814Z,1.50
2023-01-25T09:09:13.880Z,1.60
2023-01-25T09:11:40.764Z,1.50
2023-01-25T09:14:07.573Z,1.50
2023-01-25T09:16:34.389Z,1.50
2023-01-25T09:19:04.251Z,1.50
2023-01-25T09:21:31.644Z,1.50
2023-01-25T09:24:08.087Z,1.40
2023-01-25T09:26:40.849Z,1.40
2023-01-25T09:29:12.560Z,1.30
2023-01-25T09:31:40.938Z,1.20
2023-01-25T09:34:08.758Z,1.40
2023-01-25T09:36:36.256Z,1.50
2023-01-25T09:39:03.298Z,1.50
2023-01-25T09:42:13.914Z,1.50
2023-01-25T09:45:00.283Z,1.50
2023-01-25T09:47:36.693Z,1.60
2023-01-25T09:50:32.043Z,1.60
2023-01-25T09:53:24.611Z,1.60
2023-01-25T09:55:55.853Z,1.50
2023-01-25T09:58:29.309Z,1.40
2023-01-25T10:01:15.688Z,1.40
2023-01-25T10:03:54.405Z,1.40
2023-01-25T10:06:23.982Z,1.20
2023-01-25T10:09:00.712Z,1.30
2023-01-25T10:11:32.631Z,1.30
2023-01-25T10:14:00.358Z,1.30
2023-01-25T10:16:32.828Z,1.30
2023-01-25T10:19:19.616Z,1.20
2023-01-25T10:21:53.469Z,1.40
2023-01-25T10:24:52.978Z,1.50
2023-01-25T10:27:58.940Z,1.70
2023-01-25T10:30:31.441Z,1.70
2023-01-25T10:33:10.991Z,1.50
2023-01-25T10:35:45.014Z,1.60
2023-01-25T10:38:31.262Z,1.60
2023-01-25T10:41:26.994Z,1.60
2023-01-25T10:44:13.773Z,1.50
2023-01-25T10:46:46.502Z,1.30
2023-01-25T10:49:29.283Z,1.20
2023-01-25T10:51:56.672Z,1.30
2023-01-25T10:54:24.093Z,1.30
2023-01-25T10:56:52.421Z,1.40
2023-01-25T10:59:24.718Z,1.30
2023-01-25T11:01:52.323Z,1.40
2023-01-25T11:04:31.411Z,1.40
2023-01-25T11:06:59.369Z,1.50
2023-01-25T11:09:28.842Z,1.60
2023-01-25T11:12:01.836Z,1.70
2023-01-25T11:14:32.296Z,1.60
2023-01-25T11:17:01.384Z,1.70
2023-01-25T11:19:31.478Z,1.70
2023-01-25T11:21:59.775Z,1.70
2023-01-25T11:24:29.321Z,1.70
2023-01-25T11:27:16.567Z,1.70
2023-01-25T11:29:43.557Z,1.70
2023-01-25T11:32:21.567Z,1.60
2023-01-25T11:34:50.481Z,1.50
2023-01-25T11:37:38.468Z,1.50
2023-01-25T11:40:17.200Z,1.40
2023-01-25T11:42:58.364Z,1.40
2023-01-25T11:45:48.884Z,1.20
2023-01-25T11:48:43.525Z,1.20
2023-01-25T11:51:26.435Z,1.40
2023-01-25T11:54:14.355Z,1.50
2023-01-25T11:57:17.722Z,1.70
2023-01-25T11:59:51.944Z,1.70
2023-01-25T12:03:01.370Z,1.60
2023-01-25T12:05:48.040Z,1.70
2023-01-25T12:08:27.779Z,1.80
2023-01-25T12:11:06.130Z,1.90
2023-01-25T12:13:41.265Z,1.90
2023-01-25T12:16:29.918Z,1.80
2023-01-25T12:19:17.679Z,1.90
2023-01-25T12:22:22.507Z,1.90
2023-01-25T12:25:12.795Z,1.90
2023-01-25T12:28:02.643Z,1.80
2023-01-25T12:30:51.848Z,1.60
2023-01-25T12:33:36.379Z,1.70
2023-01-25T12:36:35.393Z,1.70
2023-01-25T12:39:11.780Z,1.70
2023-01-25T12:42:14.042Z,1.90
2023-01-25T12:44:52.459Z,1.80
2023-01-25T12:48:06.147Z,1.60
2023-01-25T12:50:59.246Z,1.50
2023-01-25T12:53:35.836Z,1.50
2023-01-25T12:56:06.947Z,1.60
2023-01-25T12:58:55.399Z,1.70
2023-01-25T13:01:35.403Z,1.60
2023-01-25T13:04:26.468Z,1.70
2023-01-25T13:07:10.992Z,1.80
2023-01-25T13:10:02.414Z,1.90
2023-01-25T13:12:29.121Z,1.70
2023-01-25T13:14:55.840Z,1.60
2023-01-25T13:17:41.226Z,1.50
2023-01-25T13:20:43.045Z,1.40
2023-01-25T13:23:46.098Z,1.30
2023-01-25T13:26:21.795Z,1.40
2023-01-25T13:28:53.548Z,1.40
2023-01-25T13:31:50.933Z,1.20
2023-01-25T13:34:39.073Z,1.30
2023-01-25T13:37:30.050Z,1.40
2023-01-25T13:40:05.929Z,1.50
2023-01-25T13:42:34.996Z,1.50
2023-01-25T13:45:12.668Z,1.50
2023-01-25T13:47:39.870Z,1.50
2023-01-25T13:50:29.181Z,1.50
2023-01-25T13:52:59.999Z,1.50
2023-01-25T13:55:28.036Z,1.50
2023-01-25T13:58:21.076Z,1.50
2023-01-25T14:01:00.587Z,1.40
2023-01-25T14:03:37.268Z,1.50
2023-01-25T14:06:04.535Z,1.60
2023-01-25T14:08:32.257Z,1.70
2023-01-25T14:10:59.646Z,1.70
2023-01-25T14:13:26.693Z,1.60
2023-01-25T14:16:04.428Z,1.60
2023-01-25T14:18:33.721Z,1.50
2023-01-25T14:21:12.800Z,1.50
2023-01-25T14:23:39.840Z,1.60
2023-01-25T14:26:19.071Z,1.60
2023-01-25T14:29:01.614Z,1.50
2023-01-25T14:31:34.363Z,1.50
2023-01-25T14:34:04.212Z,1.60
2023-01-25T14:36:34.584Z,1.50
2023-01-25T14:39:03.761Z,1.60
2023-01-25T14:41:40.011Z,1.50
2023-01-25T14:44:13.143Z,1.60
2023-01-25T14:46:40.847Z,1.60
2023-01-25T14:49:13.373Z,1.60
2023-01-25T14:51:47.790Z,1.60
2023-01-25T14:54:20.884Z,1.60
2023-01-25T14:56:50.331Z,1.60
2023-01-25T14:59:38.371Z,1.30
2023-01-25T15:02:17.144Z,1.30
2023-01-25T15:05:17.921Z,1.30
2023-01-25T15:07:49.963Z,1.30
2023-01-25T15:10:24.203Z,1.30
2023-01-25T15:13:14.547Z,1.20
2023-01-25T15:16:00.004Z,1.20
2023-01-25T15:18:55.542Z,1.20
2023-01-25T15:21:31.069Z,1.20
2023-01-25T15:24:04.769Z,1.10
2023-01-25T15:26:33.730Z,1.20
2023-01-25T15:29:02.879Z,1.30
2023-01-25T15:31:36.346Z,1.30
2023-01-25T15:34:04.047Z,1.40
2023-01-25T15:36:32.370Z,1.50
2023-01-25T15:38:59.575Z,1.40
2023-01-25T15:41:26.336Z,1.40
2023-01-25T15:43:53.203Z,1.20
2023-01-25T15:46:25.045Z,1.20
2023-01-25T15:48:52.962Z,1.20
2023-01-25T15:51:20.421Z,1.20
2023-01-25T15:53:47.890Z,1.30
2023-01-25T15:56:29.373Z,1.30
2023-01-25T15:59:00.317Z,1.40
2023-01-25T16:01:29.392Z,1.40
2023-01-25T16:03:57.628Z,1.40
2023-01-25T16:06:50.157Z,1.20
2023-01-25T16:09:23.452Z,1.20
2023-01-25T16:11:55.051Z,1.20
2023-01-25T16:14:23.776Z,1.30
2023-01-25T16:16:52.785Z,1.30
2023-01-25T16:19:22.780Z,1.40
2023-01-25T16:21:50.711Z,1.40
2023-01-25T16:24:18.481Z,1.40
2023-01-25T16:26:53.621Z,1.30
2023-01-25T16:29:22.960Z,1.30
2023-01-25T16:31:50.521Z,1.40
2023-01-25T16:34:17.450Z,1.40
2023-01-25T16:36:50.460Z,1.40
2023-01-25T16:39:25.471Z,1.30
2023-01-25T16:41:52.539Z,1.40
2023-01-25T16:44:19.561Z,1.40
2023-01-25T16:46:51.125Z,1.30
2023-01-25T16:49:26.246Z,1.20
2023-01-25T16:51:54.301Z,1.00
2023-01-25T16:54:23.621Z,1.00
2023-01-25T16:56:51.374Z,1.10
2023-01-25T16:59:19.329Z,1.10
2023-01-25T17:01:46.456Z,1.10
2023-01-25T17:04:13.338Z,1.20
2023-01-25T17:06:46.137Z,1.00
2023-01-25T17:09:22.976Z,0.90
2023-01-25T17:11:51.332Z,0.90
2023-01-25T17:14:19.390Z,0.80
2023-01-25T17:16:48.268Z,0.80
2023-01-25T17:19:16.282Z,0.90
2023-01-25T17:21:43.491Z,1.00
2023-01-25T17:24:13.927Z,1.00
2023-01-25T17:26:41.032Z,1.00
2023-01-25T17:29:10.254Z,1.10
2023-01-25T17:31:37.526Z,1.10
2023-01-25T17:34:06.473Z,1.00
2023-01-25T17:36:33.512Z,1.00
2023-01-25T17:39:07.530Z,1.00
2023-01-25T17:41:34.415Z,1.00
2023-01-25T17:44:01.737Z,1.00
2023-01-25T17:46:32.986Z,0.90
2023-01-25T17:49:02.337Z,1.00
2023-01-25T17:51:30.313Z,1.00
2023-01-25T17:53:58.051Z,0.90
2023-01-25T17:56:25.616Z,0.80
2023-01-25T17:58:52.489Z,0.80
2023-01-25T18:01:24.252Z,0.90
2023-01-25T18:03:53.547Z,0.90
2023-01-25T18:06:25.602Z,0.90
2023-01-25T18:08:55.660Z,0.80
2023-01-25T18:11:27.392Z,0.90
2023-01-25T18:13:59.324Z,0.90
2023-01-25T18:16:28.391Z,1.10
2023-01-25T18:18:58.295Z,1.20
2023-01-25T18:21:27.947Z,1.20
2023-01-25T18:23:57.243Z,1.20
2023-01-25T18:26:29.726Z,1.20
2023-01-25T18:29:08.496Z,1.00
2023-01-25T18:31:35.740Z,0.90
2023-01-25T18:34:02.601Z,1.00
2023-01-25T18:36:29.396Z,1.10
2023-01-25T18:38:57.300Z,1.10
2023-01-25T18:41:24.184Z,1.10
2023-01-25T18:43:51.030Z,1.10
2023-01-25T18:46:17.974Z,1.10
2023-01-25T18:48:47.174Z,1.20
2023-01-25T18:51:17.670Z,1.30
2023-01-25T18:53:47.526Z,1.40
2023-01-25T18:56:20.220Z,1.40
2023-01-25T18:58:47.879Z,1.40
2023-01-25T19:01:19.967Z,1.40
2023-01-25T19:03:48.530Z,1.50
2023-01-25T19:06:15.981Z,1.50
2023-01-25T19:08:44.581Z,1.60
2023-01-25T19:11:14.171Z,1.60
2023-01-25T19:13:42.445Z,1.40
2023-01-25T19:16:16.724Z,1.10
2023-01-25T19:18:48.385Z,1.20
2023-01-25T19:21:17.008Z,1.00
2023-01-25T19:23:44.161Z,1.10
2023-01-25T19:26:13.761Z,1.00
2023-01-25T19:28:40.595Z,1.00
2023-01-25T19:31:22.037Z,1.10
2023-01-25T19:33:54.360Z,1.10
2023-01-25T19:36:21.391Z,0.90
2023-01-25T19:38:49.071Z,0.90
2023-01-25T19:41:18.299Z,1.00
2023-01-25T19:43:45.386Z,1.10
2023-01-25T19:46:18.873Z,1.20
2023-01-25T19:48:50.171Z,1.30
2023-01-25T19:51:23.082Z,1.40
2023-01-25T19:53:55.270Z,1.40
2023-01-25T19:56:22.108Z,1.30
2023-01-25T19:58:50.852Z,1.30
2023-01-25T20:01:21.064Z,1.30
2023-01-25T20:03:48.958Z,1.40
2023-01-25T20:06:16.972Z,1.20
2023-01-25T20:08:49.838Z,1.10
2023-01-25T20:11:20.089Z,1.10
2023-01-25T20:13:48.470Z,1.20
2023-01-25T20:16:19.579Z,1.20
2023-01-25T20:18:48.103Z,1.20
2023-01-25T20:21:17.744Z,1.30
2023-01-25T20:23:46.172Z,1.10
2023-01-25T20:26:19.240Z,1.20
2023-01-25T20:28:51.526Z,1.40
2023-01-25T20:31:26.812Z,1.30
2023-01-25T20:33:56.126Z,1.30
2023-01-25T20:36:23.681Z,1.30
2023-01-25T20:38:51.143Z,1.30
2023-01-25T20:41:18.682Z,1.30
2023-01-25T20:43:49.937Z,1.20
2023-01-25T20:46:18.641Z,1.40
2023-01-25T20:48:45.713Z,1.50
2023-01-25T20:51:14.607Z,1.50
2023-01-25T20:53:43.094Z,1.40
2023-01-25T20:56:11.572Z,1.30
2023-01-25T20:58:38.771Z,1.30
2023-01-25T21:01:16.452Z,1.40
2023-01-25T21:03:43.418Z,1.30
2023-01-25T21:06:10.423Z,1.20
2023-01-25T21:08:37.162Z,1.20
2023-01-25T21:11:04.170Z,1.20
2023-01-25T21:13:30.972Z,1.10
2023-01-25T21:16:12.308Z,1.10
2023-01-25T21:18:40.405Z,1.20
2023-01-25T21:21:11.646Z,1.20
2023-01-25T21:23:40.857Z,1.10
2023-01-25T21:26:10.412Z,1.00
2023-01-25T21:28:37.210Z,0.90
2023-01-25T21:31:21.119Z,0.90
2023-01-25T21:33:48.294Z,0.90
2023-01-25T21:36:17.108Z,0.90
2023-01-25T21:38:46.618Z,0.80
2023-01-25T21:41:22.143Z,0.70
2023-01-25T21:44:07.900Z,0.70
2023-01-25T21:46:35.533Z,0.80
2023-01-25T21:49:23.147Z,0.90
2023-01-25T21:51:53.481Z,0.90
2023-01-25T21:54:34.976Z,0.90
2023-01-25T21:57:04.985Z,0.80
2023-01-25T21:59:32.066Z,0.80
2023-01-25T22:01:58.804Z,0.90
2023-01-25T22:04:27.152Z,0.80
2023-01-25T22:06:54.491Z,0.80
2023-01-25T22:09:22.730Z,1.00
2023-01-25T22:11:50.795Z,1.00
2023-01-25T22:14:24.740Z,0.90
2023-01-25T22:16:52.245Z,0.90
2023-01-25T22:19:19.379Z,0.80
2023-01-25T22:21:46.296Z,0.80
2023-01-25T22:24:13.714Z,0.90
2023-01-25T22:26:46.486Z,0.90
2023-01-25T22:29:13.487Z,0.90
2023-01-25T22:31:40.389Z,0.90
2023-01-25T22:34:07.816Z,0.80
2023-01-25T22:36:34.579Z,0.90
2023-01-25T22:39:01.370Z,0.90
2023-01-25T22:41:31.080Z,0.90
2023-01-25T22:43:58.324Z,0.80
2023-01-25T22:46:27.662Z,0.80
2023-01-25T22:48:54.614Z,0.90
2023-01-25T22:51:25.356Z,0.90
2023-01-25T22:53:52.793Z,0.80
2023-01-25T22:56:22.708Z,0.70
2023-01-25T22:58:50.196Z,0.80
2023-01-25T23:01:19.816Z,0.80
2023-01-25T23:03:47.718Z,0.80
2023-01-25T23:06:16.866Z,0.80
2023-01-25T23:08:44.149Z,0.90
2023-01-25T23:11:19.555Z,0.90
2023-01-25T23:14:06.826Z,0.90
2023-01-25T23:16:35.074Z,0.90
2023-01-25T23:19:04.162Z,0.70
2023-01-25T23:21:31.602Z,0.80
2023-01-25T23:24:03.226Z,0.70
2023-01-25T23:26:37.865Z,0.70
2023-01-25T23:29:12.753Z,0.70
2023-01-25T23:31:39.568Z,0.70
2023-01-25T23:34:06.982Z,0.70
2023-01-25T23:36:36.103Z,0.70
2023-01-25T23:39:03.103Z,0.60
2023-01-25T23:41:30.767Z,0.60
2023-01-25T23:43:58.289Z,0.80
2023-01-25T23:46:26.058Z,0.80
2023-01-25T23:48:52.924Z,0.90
2023-01-25T23:51:20.428Z,1.10
2023-01-25T23:53:47.672Z,1.10
2023-01-25T23:56:19.560Z,1.10
2023-01-25T23:58:46.815Z,1.00
